Time;durP1;ratioP1;P1;durP2;ratioP2;P2;SDS_P1;SDS_P2;PMS_P1;PMS_P2;Temp;Humidity;BMP_temperature;BMP_pressure;BME280_temperature;BME280_humidity;BME280_pressure;Samples;Min_cycle;Max_cycle;Signal;HPM_P1;HPM_P2
2021/06/07 00:03:24;;;;;;;37.08;24.10;;;;;;;16.53;100.00;98854.45;3972763;73;27674;-18
2021/06/07 00:08:31;;;;;;;34.85;23.05;;;;;;;16.51;100.00;98853.81;3889899;75;44058;-20
2021/06/07 00:13:37;;;;;;;34.20;23.45;;;;;;;16.56;100.00;98858.16;3904316;74;44703;-20
2021/06/07 00:18:44;;;;;;;37.40;23.73;;;;;;;16.62;100.00;98856.05;3892550;75;43521;-20
2021/06/07 00:23:53;;;;;;;39.95;25.05;;;;;;;16.60;100.00;98855.40;3918200;75;44121;-21
2021/06/07 00:28:59;;;;;;;39.83;25.08;;;;;;;16.50;100.00;98850.77;3834312;75;43699;-21
2021/06/07 00:34:06;;;;;;;42.05;26.35;;;;;;;16.41;100.00;98850.52;3929793;74;43478;-21
2021/06/07 00:39:14;;;;;;;43.17;25.70;;;;;;;16.30;100.00;98847.77;3913512;75;44051;-21
2021/06/07 00:44:23;;;;;;;41.45;26.35;;;;;;;16.32;100.00;98847.08;3897888;74;44076;-21
2021/06/07 00:49:29;;;;;;;43.65;26.57;;;;;;;16.32;100.00;98841.64;3911836;74;43722;-22
2021/06/07 00:54:35;;;;;;;42.55;26.12;;;;;;;16.23;100.00;98845.49;3892391;75;43147;-22
2021/06/07 00:59:41;;;;;;;45.03;26.17;;;;;;;16.25;100.00;98852.42;3917105;74;44396;-22
2021/06/07 01:04:47;;;;;;;42.88;25.48;;;;;;;16.23;100.00;98847.68;3935784;74;44076;-22
2021/06/07 01:09:53;;;;;;;42.73;26.57;;;;;;;16.30;100.00;98849.97;3932943;74;44130;-22
2021/06/07 01:15:00;;;;;;;43.15;26.55;;;;;;;16.35;100.00;98849.92;3947716;74;43686;-23
2021/06/07 01:20:10;;;;;;;43.95;26.75;;;;;;;16.41;100.00;98847.80;3936133;74;43448;-22
2021/06/07 01:25:19;;;;;;;44.45;26.55;;;;;;;16.42;100.00;98845.41;3936118;74;43705;-22
2021/06/07 01:30:28;;;;;;;42.73;26.05;;;;;;;16.40;100.00;98844.25;3920742;74;43435;-20
2021/06/07 01:35:35;;;;;;;43.52;26.37;;;;;;;16.36;100.00;98851.62;3938196;74;44175;-22
2021/06/07 01:40:45;;;;;;;49.88;28.60;;;;;;;16.25;100.00;98840.69;3931266;74;43764;-22
2021/06/07 01:45:52;;;;;;;51.08;29.80;;;;;;;16.17;100.00;98836.18;3930160;74;43454;-21
2021/06/07 01:51:01;;;;;;;54.38;30.00;;;;;;;16.10;100.00;98832.03;3927369;74;44145;-21
2021/06/07 01:56:09;;;;;;;51.58;29.50;;;;;;;16.02;100.00;98830.75;3921541;74;44474;-21
2021/06/07 02:01:17;;;;;;;50.75;27.90;;;;;;;16.11;100.00;98828.79;3908452;74;44090;-22
2021/06/07 02:06:26;;;;;;;53.15;30.10;;;;;;;16.11;100.00;98821.99;3881784;75;44046;-21
2021/06/07 02:11:33;;;;;;;53.15;29.48;;;;;;;16.04;100.00;98819.70;3857014;75;44136;-21
2021/06/07 02:16:41;;;;;;;52.88;30.85;;;;;;;15.89;100.00;98824.61;3872628;75;43617;-21
2021/06/07 02:21:47;;;;;;;53.15;29.65;;;;;;;15.91;100.00;98825.27;3877462;74;43718;-22
2021/06/07 02:26:53;;;;;;;56.53;29.82;;;;;;;15.91;100.00;98818.98;3887083;75;43678;-22
2021/06/07 02:31:59;;;;;;;60.73;31.37;;;;;;;15.90;100.00;98814.08;3878083;75;44055;-22
2021/06/07 02:37:06;;;;;;;60.45;31.85;;;;;;;15.80;100.00;98814.30;3876576;74;43466;-21
2021/06/07 02:42:14;;;;;;;64.80;34.05;;;;;;;15.72;100.00;98815.75;3887828;75;44588;-22
2021/06/07 02:47:21;;;;;;;72.87;35.43;;;;;;;15.70;100.00;98814.56;3888852;75;43714;-22
2021/06/07 02:52:28;;;;;;;78.37;36.08;;;;;;;15.71;100.00;98821.69;3882092;74;44440;-22
2021/06/07 02:57:34;;;;;;;76.82;36.77;;;;;;;15.68;100.00;98819.36;3886789;74;43984;-21
2021/06/07 03:02:41;;;;;;;80.20;35.10;;;;;;;15.62;100.00;98821.97;3868083;75;44488;-21
2021/06/07 03:07:47;;;;;;;77.80;36.45;;;;;;;15.56;100.00;98831.69;3878774;75;43654;-21
2021/06/07 03:12:54;;;;;;;73.28;35.03;;;;;;;15.59;100.00;98832.66;3863411;75;43703;-21
2021/06/07 03:18:01;;;;;;;76.67;35.90;;;;;;;15.63;100.00;98829.92;3832259;75;43483;-21
2021/06/07 03:23:10;;;;;;;68.85;35.13;;;;;;;15.63;100.00;98837.23;3798310;76;43690;-22
2021/06/07 03:28:17;;;;;;;71.12;35.13;;;;;;;15.61;100.00;98834.69;3828049;75;42991;-22
2021/06/07 03:33:25;;;;;;;62.90;32.20;;;;;;;15.71;100.00;98834.44;3849860;75;44007;-22
2021/06/07 03:38:32;;;;;;;68.67;34.23;;;;;;;15.68;100.00;98830.23;3860397;75;43446;-21
2021/06/07 03:43:40;;;;;;;66.12;31.50;;;;;;;15.65;100.00;98827.01;3846497;75;44828;-21
2021/06/07 03:48:47;;;;;;;61.60;32.98;;;;;;;15.64;100.00;98832.97;3846284;75;43440;-22
2021/06/07 03:53:53;;;;;;;65.62;33.40;;;;;;;15.72;100.00;98830.69;3831839;75;44024;-22
2021/06/07 03:58:59;;;;;;;60.83;32.13;;;;;;;15.69;100.00;98826.98;3846322;75;44125;-22
2021/06/07 04:04:06;;;;;;;68.60;33.83;;;;;;;15.68;100.00;98838.87;3856363;74;44141;-22
2021/06/07 04:09:12;;;;;;;65.85;33.42;;;;;;;15.72;100.00;98835.59;3899549;75;43389;-22
2021/06/07 04:14:18;;;;;;;61.20;31.77;;;;;;;15.69;100.00;98832.41;3867451;74;44052;-22
2021/06/07 04:19:24;;;;;;;57.33;30.97;;;;;;;15.69;100.00;98833.27;3894325;75;44004;-22
2021/06/07 04:24:30;;;;;;;62.13;31.70;;;;;;;15.67;100.00;98833.10;3887622;74;43454;-22
2021/06/07 04:29:36;;;;;;;56.75;30.27;;;;;;;15.70;100.00;98832.22;3888057;75;44551;-22
2021/06/07 04:34:43;;;;;;;58.20;30.32;;;;;;;15.67;100.00;98842.11;3883364;74;43740;-22
2021/06/07 04:39:49;;;;;;;60.30;31.57;;;;;;;15.66;100.00;98849.06;3883079;74;44070;-22
2021/06/07 04:44:55;;;;;;;62.80;31.62;;;;;;;15.64;100.00;98847.91;3891267;74;43469;-22
2021/06/07 04:50:02;;;;;;;63.00;32.23;;;;;;;15.63;100.00;98844.02;3898731;75;44387;-22
2021/06/07 04:55:10;;;;;;;67.40;33.45;;;;;;;15.68;100.00;98844.30;3891712;75;44044;-21
2021/06/07 05:00:19;;;;;;;68.28;34.20;;;;;;;15.73;100.00;98845.97;3880250;75;43470;-21
2021/06/07 05:05:25;;;;;;;74.97;36.15;;;;;;;15.72;100.00;98837.48;3907224;74;44032;-21
2021/06/07 05:10:32;;;;;;;80.53;36.80;;;;;;;15.70;100.00;98840.36;3926174;74;43730;-21
2021/06/07 05:15:38;;;;;;;80.28;36.83;;;;;;;15.78;100.00;98837.26;3922148;74;43397;-22
2021/06/07 05:20:45;;;;;;;74.15;35.92;;;;;;;15.85;100.00;98844.52;3910653;75;43350;-22
2021/06/07 05:25:52;;;;;;;78.67;37.73;;;;;;;15.92;100.00;98841.05;3919362;75;43274;-22
2021/06/07 05:30:58;;;;;;;76.17;37.30;;;;;;;15.94;100.00;98850.69;3909884;75;44067;-21
2021/06/07 05:36:06;;;;;;;71.28;37.73;;;;;;;15.95;100.00;98852.38;3911923;74;44129;-21
2021/06/07 05:41:13;;;;;;;73.90;39.08;;;;;;;15.99;100.00;98861.03;3924434;74;44078;-21
2021/06/07 05:46:19;;;;;;;75.35;39.18;;;;;;;16.00;100.00;98853.19;3926537;75;43319;-23
2021/06/07 05:51:25;;;;;;;78.17;38.17;;;;;;;15.98;100.00;98860.17;3918462;74;44064;-20
2021/06/07 05:56:32;;;;;;;79.35;39.25;;;;;;;16.00;100.00;98861.34;3910236;75;43710;-22
2021/06/07 06:01:38;;;;;;;72.78;37.63;;;;;;;16.01;100.00;98865.74;3906524;75;44051;-23
2021/06/07 06:06:45;;;;;;;76.82;39.05;;;;;;;16.04;100.00;98869.98;3932027;74;44043;-21
2021/06/07 06:11:51;;;;;;;72.55;37.58;;;;;;;16.09;100.00;98870.25;3946953;74;43945;-22
2021/06/07 06:16:59;;;;;;;73.02;38.00;;;;;;;16.16;100.00;98872.05;3927540;74;44052;-22
2021/06/07 06:22:07;;;;;;;73.05;37.63;;;;;;;16.26;100.00;98869.06;3928879;74;44046;-21
2021/06/07 06:27:14;;;;;;;65.65;38.25;;;;;;;16.25;100.00;98871.45;3933067;74;43271;-22
2021/06/07 06:32:22;;;;;;;69.25;36.40;;;;;;;16.22;100.00;98872.34;3930159;74;43375;-21
2021/06/07 06:37:28;;;;;;;65.40;36.03;;;;;;;16.31;100.00;98873.41;3935179;74;44116;-21
2021/06/07 06:42:35;;;;;;;60.35;35.43;;;;;;;16.40;100.00;98876.05;3941022;74;43694;-22
2021/06/07 06:47:41;;;;;;;60.83;35.28;;;;;;;16.42;100.00;98869.88;3951507;74;44003;-20
2021/06/07 06:52:48;;;;;;;60.73;35.35;;;;;;;16.51;100.00;98873.36;3932399;74;42926;-19
2021/06/07 06:57:54;;;;;;;64.12;35.35;;;;;;;16.62;100.00;98870.16;3915838;74;44039;-22
2021/06/07 07:03:00;;;;;;;60.75;36.45;;;;;;;16.69;100.00;98871.61;3925114;74;42945;-22
2021/06/07 07:08:07;;;;;;;64.67;36.30;;;;;;;16.73;100.00;98879.19;3908423;75;44074;-21
2021/06/07 07:13:13;;;;;;;61.20;38.13;;;;;;;16.67;100.00;98883.19;3921126;74;43984;-22
2021/06/07 07:18:19;;;;;;;60.70;36.85;;;;;;;16.72;100.00;98882.11;3929419;75;44383;-22
2021/06/07 07:23:25;;;;;;;56.40;34.78;;;;;;;16.85;100.00;98885.50;3908454;74;43397;-22
2021/06/07 07:28:31;;;;;;;55.85;35.15;;;;;;;16.94;100.00;98887.97;3914514;75;44204;-22
2021/06/07 07:33:39;;;;;;;58.15;34.45;;;;;;;17.13;100.00;98892.45;3907918;75;44464;-22
2021/06/07 07:38:45;;;;;;;52.00;32.33;;;;;;;17.29;100.00;98895.98;3925737;75;44833;-22
2021/06/07 07:43:52;;;;;;;51.48;33.00;;;;;;;17.36;100.00;98894.16;3903865;74;44781;-22
2021/06/07 07:48:59;;;;;;;49.73;33.20;;;;;;;17.55;100.00;98896.77;3898692;74;44089;-22
2021/06/07 07:54:06;;;;;;;43.90;31.65;;;;;;;17.73;100.00;98897.66;3910931;74;43988;-23
2021/06/07 07:59:13;;;;;;;48.10;32.08;;;;;;;17.69;100.00;98900.48;3917861;74;43423;-22
2021/06/07 08:04:18;;;;;;;51.30;32.45;;;;;;;17.69;100.00;98899.11;3899821;75;44599;-21
2021/06/07 08:09:30;;;;;;;45.20;32.23;;;;;;;17.72;100.00;98898.70;3861509;75;43158;-21
2021/06/07 08:14:34;;;;;;;48.95;31.62;;;;;;;17.66;100.00;98904.95;3882092;75;44086;-20
2021/06/07 08:19:41;;;;;;;48.92;31.90;;;;;;;17.74;100.00;98913.52;3868755;75;44563;-21
2021/06/07 08:24:47;;;;;;;49.42;31.52;;;;;;;17.81;100.00;98913.04;3863021;75;44198;-21
2021/06/07 08:29:53;;;;;;;45.10;30.72;;;;;;;17.91;100.00;98909.98;3850268;75;43368;-21
2021/06/07 08:34:59;;;;;;;43.98;30.08;;;;;;;18.01;100.00;98906.43;3874527;75;44150;-21
2021/06/07 08:40:08;;;;;;;41.30;29.65;;;;;;;18.43;100.00;98909.23;3849352;75;44221;-21
2021/06/07 08:45:17;;;;;;;45.12;30.30;;;;;;;18.49;100.00;98902.97;3845642;75;44064;-22
2021/06/07 08:50:25;;;;;;;49.10;32.85;;;;;;;18.54;100.00;98911.91;3838329;75;44038;-21
2021/06/07 08:55:33;;;;;;;46.35;31.55;;;;;;;18.22;100.00;98915.09;3809747;76;43350;-21
2021/06/07 09:00:41;;;;;;;46.88;32.75;;;;;;;18.00;100.00;98912.39;3834862;75;44439;-21
2021/06/07 09:05:50;;;;;;;45.63;32.40;;;;;;;18.15;100.00;98913.67;3862237;75;44201;-21
2021/06/07 09:10:56;;;;;;;46.15;32.30;;;;;;;18.22;100.00;98918.32;3890194;75;43634;-21
2021/06/07 09:16:04;;;;;;;50.33;32.48;;;;;;;18.04;100.00;98916.95;3880849;75;44043;-21
2021/06/07 09:21:13;;;;;;;44.60;31.90;;;;;;;17.98;100.00;98914.49;3873085;74;44110;-21
2021/06/07 09:26:27;;;;;;;43.40;30.62;;;;;;;18.01;100.00;98921.42;3895295;74;44194;-21
2021/06/07 09:31:36;;;;;;;43.38;30.92;;;;;;;18.28;100.00;98919.73;3870772;75;43134;-21
2021/06/07 09:36:44;;;;;;;45.30;31.25;;;;;;;18.55;100.00;98916.33;3865457;74;42862;-21
2021/06/07 09:41:53;;;;;;;41.30;29.30;;;;;;;18.53;100.00;98910.22;3889670;74;44435;-21
2021/06/07 09:47:13;;;;;;;41.88;29.82;;;;;;;18.86;100.00;98910.94;3892993;75;42912;-21
2021/06/07 09:52:23;;;;;;;38.40;28.80;;;;;;;19.21;100.00;98912.25;3879867;75;43099;-21
2021/06/07 09:57:49;;;;;;;40.12;29.85;;;;;;;19.25;100.00;98913.51;3906650;75;43857;-21
2021/06/07 10:02:56;;;;;;;41.53;30.75;;;;;;;19.17;100.00;98913.16;3866305;75;43330;-21
2021/06/07 10:08:02;;;;;;;42.98;29.52;;;;;;;19.06;100.00;98908.30;3912331;74;44063;-21
2021/06/07 10:13:10;;;;;;;40.80;29.30;;;;;;;19.24;100.00;98910.45;3931670;74;44002;-21
2021/06/07 10:18:18;;;;;;;38.98;28.57;;;;;;;19.31;100.00;98912.70;3916661;75;43391;-22
2021/06/07 10:23:26;;;;;;;38.13;29.15;;;;;;;19.29;100.00;98910.70;3919545;75;43467;-22
2021/06/07 10:34:03;;;;;;;40.40;29.63;;;;;;;19.62;100.00;98900.34;3995509;73;27811;-20
2021/06/07 10:39:25;;;;;;;35.73;26.27;;;;;;;19.61;100.00;98906.03;3916307;74;42973;-22
2021/06/07 10:44:39;;;;;;;34.20;25.85;;;;;;;19.54;100.00;98905.48;3928832;74;43348;-21
2021/06/07 10:49:47;;;;;;;35.15;25.95;;;;;;;20.04;100.00;98906.19;3923768;75;43910;-21
2021/06/07 10:55:02;;;;;;;34.15;25.88;;;;;;;20.19;100.00;98903.23;3932077;75;44622;-24
2021/06/07 11:00:23;;;;;;;30.55;24.00;;;;;;;20.32;100.00;98904.04;3911985;74;43120;-21
2021/06/07 11:10:43;;;;;;;34.50;27.60;;;;;;;20.77;100.00;98893.75;4011609;72;27302;-21
2021/06/07 11:15:56;;;;;;;33.35;26.50;;;;;;;20.91;100.00;98902.74;3919580;75;44040;-22
2021/06/07 11:21:24;;;;;;;34.00;25.45;;;;;;;20.78;100.00;98901.42;3940429;75;43378;-22
2021/06/07 11:26:39;;;;;;;32.67;26.00;;;;;;;21.12;100.00;98892.53;3929073;73;44534;-22
2021/06/07 11:31:51;;;;;;;33.98;26.65;;;;;;;20.73;100.00;98891.63;3926909;73;43616;-23
2021/06/07 11:36:59;;;;;;;33.02;25.50;;;;;;;20.63;100.00;98891.56;3944421;75;43486;-22
2021/06/07 11:42:09;;;;;;;34.35;25.75;;;;;;;21.03;100.00;98891.97;3927676;73;43113;-22
2021/06/07 11:47:18;;;;;;;26.80;22.07;;;;;;;21.42;100.00;98889.73;3925948;75;43912;-22
2021/06/07 11:52:34;;;;;;;29.32;22.90;;;;;;;21.58;100.00;98887.84;3920774;75;43932;-23
2021/06/07 12:02:55;;;;;;;31.45;25.32;;;;;;;21.46;95.84;98879.47;4019185;72;27249;-20
2021/06/07 12:08:07;;;;;;;31.42;25.45;;;;;;;21.46;100.00;98884.12;3966234;73;43358;-22
2021/06/07 12:18:44;;;;;;;30.48;24.43;;;;;;;21.36;94.36;98878.60;4016838;72;27267;-20
2021/06/07 12:23:57;;;;;;;26.20;22.32;;;;;;;21.11;100.00;98884.00;3961211;73;44067;-23
2021/06/07 12:29:03;;;;;;;31.68;24.75;;;;;;;21.39;100.00;98877.31;3962840;73;44074;-23
2021/06/07 12:34:11;;;;;;;29.07;22.75;;;;;;;21.45;96.24;98877.81;3961190;74;26725;-23
2021/06/07 12:39:19;;;;;;;29.10;23.90;;;;;;;22.36;94.92;98867.02;3960810;73;42868;-21
2021/06/07 12:44:26;;;;;;;27.05;23.30;;;;;;;21.87;94.08;98862.23;3971444;73;44062;-20
2021/06/07 12:49:34;;;;;;;28.12;21.00;;;;;;;21.95;97.41;98862.46;3961302;73;43405;-23
2021/06/07 12:54:40;;;;;;;27.95;23.85;;;;;;;22.84;94.55;98860.80;3964029;73;44195;-24
2021/06/07 12:59:47;;;;;;;28.35;23.12;;;;;;;22.06;96.32;98852.12;3969028;73;43555;-21
2021/06/07 13:04:54;;;;;;;28.10;21.52;;;;;;;21.92;99.28;98852.78;3964407;73;44078;-21
2021/06/07 13:10:00;;;;;;;25.05;21.10;;;;;;;22.21;92.32;98845.44;3964863;73;43994;-21
2021/06/07 13:15:09;;;;;;;25.43;21.00;;;;;;;23.07;86.78;98837.24;3956965;74;44067;-21
2021/06/07 13:20:19;;;;;;;29.90;23.22;;;;;;;22.83;87.64;98841.81;3944488;73;44584;-21
2021/06/07 13:25:30;;;;;;;24.00;20.50;;;;;;;22.37;89.72;98834.39;3920959;73;43244;-21
2021/06/07 13:30:37;;;;;;;26.17;22.70;;;;;;;22.41;91.58;98831.53;3951214;74;43445;-21
2021/06/07 13:35:43;;;;;;;26.85;22.65;;;;;;;22.34;89.35;98834.32;3936207;74;43424;-21
2021/06/07 13:40:50;;;;;;;28.85;23.27;;;;;;;23.00;86.27;98835.14;3939574;73;44047;-22
2021/06/07 13:45:55;;;;;;;28.30;23.67;;;;;;;22.96;88.82;98829.79;3949117;74;44121;-22
2021/06/07 13:51:02;;;;;;;28.57;23.80;;;;;;;22.32;88.94;98832.33;3949973;73;43980;-22
2021/06/07 13:56:10;;;;;;;29.85;24.92;;;;;;;22.83;85.90;98822.03;3936812;73;43282;-22
2021/06/07 14:01:18;;;;;;;30.08;25.05;;;;;;;23.39;84.88;98814.49;3940644;74;44057;-23
2021/06/07 14:06:24;;;;;;;31.70;26.33;;;;;;;23.43;81.88;98822.28;3935106;74;44157;-22
2021/06/07 14:11:30;;;;;;;34.13;26.62;;;;;;;22.81;87.13;98815.09;3958842;73;43314;-22
2021/06/07 14:16:36;;;;;;;28.73;23.95;;;;;;;22.76;89.55;98822.66;3943092;73;44180;-22
2021/06/07 14:24:37;;;;;;;32.38;23.73;;;;;;;23.73;86.40;98819.98;3951195;73;44023;-22
2021/06/07 14:26:55;;;;;;;25.00;22.20;;;;;;;24.28;78.54;98826.55;3934688;73;26323;-22
2021/06/07 14:32:02;;;;;;;31.30;24.80;;;;;;;24.81;77.42;98826.56;3939797;73;44132;-22
2021/06/07 14:37:08;;;;;;;25.12;22.37;;;;;;;24.30;80.73;98822.99;3935886;73;44018;-22
2021/06/07 14:42:14;;;;;;;25.90;23.10;;;;;;;23.99;82.16;98820.11;3930348;73;44100;-22
2021/06/07 14:52:33;;;;;;;23.83;20.75;;;;;;;23.04;77.79;98808.33;3980168;73;27123;-22
2021/06/07 15:02:53;;;;;;;25.65;20.92;;;;;;;22.93;77.32;98802.25;3968184;73;27283;-20
2021/06/07 15:08:01;;;;;;;22.35;19.95;;;;;;;23.51;79.16;98802.68;3908936;75;44040;-21
2021/06/07 15:13:13;;;;;;;22.15;19.82;;;;;;;24.04;77.91;98797.37;3898223;74;44027;-22
2021/06/07 15:18:20;;;;;;;24.50;20.62;;;;;;;24.50;75.08;98792.86;3892090;74;43345;-22
2021/06/07 15:23:28;;;;;;;22.90;19.50;;;;;;;24.70;71.49;98778.67;3897061;74;43682;-22
2021/06/07 15:28:35;;;;;;;21.45;18.75;;;;;;;24.85;72.51;98778.16;3896428;74;44078;-22
2021/06/07 15:33:41;;;;;;;22.15;19.17;;;;;;;25.68;71.37;98769.95;3894275;75;43972;-22
2021/06/07 15:38:49;;;;;;;21.70;19.50;;;;;;;25.45;73.24;98767.66;3896129;74;43690;-22
2021/06/07 15:43:55;;;;;;;20.37;18.27;;;;;;;25.83;70.83;98768.79;3890309;75;43302;-22
2021/06/07 15:49:03;;;;;;;20.43;18.30;;;;;;;25.01;75.17;98771.53;3900193;74;44020;-22
2021/06/07 15:54:09;;;;;;;22.22;18.82;;;;;;;24.45;74.89;98772.09;3890077;74;43515;-22
2021/06/07 15:59:15;;;;;;;20.15;17.70;;;;;;;23.99;77.44;98767.27;3901853;74;44050;-24
2021/06/07 16:04:21;;;;;;;22.05;18.67;;;;;;;23.66;80.82;98767.31;3918659;74;43404;-21
2021/06/07 16:09:27;;;;;;;21.23;18.82;;;;;;;23.33;81.43;98767.34;3917529;74;44724;-23
2021/06/07 16:14:33;;;;;;;19.23;17.15;;;;;;;23.31;80.70;98768.11;3761592;77;44064;-22
2021/06/07 16:19:50;;;;;;;18.32;16.32;;;;;;;24.02;77.50;98770.06;3900686;75;43443;-22
2021/06/07 16:24:56;;;;;;;17.98;15.83;;;;;;;24.71;74.51;98774.02;3892081;74;44149;-21
2021/06/07 16:35:15;;;;;;;18.50;16.02;;;;;;;24.22;67.75;98777.12;3971768;73;27150;-20
2021/06/07 16:40:21;;;;;;;18.77;16.07;;;;;;;24.00;76.54;98770.84;3921623;75;43903;-21
2021/06/07 16:50:42;;;;;;;19.35;15.95;;;;;;;24.16;73.44;98763.23;3954613;73;27334;-22
2021/06/07 16:55:49;;;;;;;18.15;16.17;;;;;;;23.90;81.09;98766.45;3911071;74;43388;-22
2021/06/07 17:00:55;;;;;;;18.98;16.45;;;;;;;23.15;83.11;98768.75;3913172;75;43298;-22
2021/06/07 17:11:15;;;;;;;17.77;15.75;;;;;;;22.73;84.39;98762.17;3955057;73;27290;-21
2021/06/07 17:16:21;;;;;;;17.00;15.05;;;;;;;22.63;86.50;98764.09;3932624;75;43738;-22
2021/06/07 17:21:27;;;;;;;17.67;15.85;;;;;;;22.78;85.95;98762.30;3928915;75;43695;-22
2021/06/07 17:31:46;;;;;;;18.85;15.48;;;;;;;22.92;83.59;98754.72;4010953;72;27275;-20
2021/06/07 17:36:53;;;;;;;17.35;15.45;;;;;;;22.90;86.02;98758.75;3967645;73;43779;-22
2021/06/07 17:41:59;;;;;;;18.20;15.58;;;;;;;23.06;85.57;98764.11;3967460;73;43322;-24
2021/06/07 17:47:06;;;;;;;17.98;16.05;;;;;;;23.15;86.29;98770.12;3967087;73;44836;-24
2021/06/07 17:57:26;;;;;;;17.95;16.02;;;;;;;23.42;80.90;98780.73;3994022;73;27166;-20
2021/06/07 18:07:47;;;;;;;21.35;18.48;;;;;;;23.43;83.88;98776.91;3978480;73;27679;-20
2021/06/07 18:12:56;;;;;;;23.35;18.92;;;;;;;23.02;86.65;98768.42;3931643;73;43003;-22
2021/06/07 18:18:04;;;;;;;21.00;18.48;;;;;;;22.87;89.85;98778.47;3924116;75;43309;-21
2021/06/07 18:23:13;;;;;;;20.62;18.42;;;;;;;22.39;94.02;98779.59;3919962;74;43678;-21
2021/06/07 18:28:24;;;;;;;22.60;20.10;;;;;;;22.16;96.29;98774.26;3906240;75;43686;-21
2021/06/07 18:33:34;;;;;;;23.50;20.60;;;;;;;21.49;100.00;98781.72;3914596;74;44130;-21
2021/06/07 18:38:41;;;;;;;23.87;20.48;;;;;;;20.94;100.00;98787.28;3926788;74;43311;-22
2021/06/07 18:43:49;;;;;;;25.92;20.68;;;;;;;20.63;100.00;98783.94;3921635;74;43705;-22
2021/06/07 18:48:56;;;;;;;25.40;20.92;;;;;;;20.26;100.00;98792.73;3922299;75;44139;-22
2021/06/07 18:54:04;;;;;;;28.55;22.00;;;;;;;19.99;100.00;98785.12;3924641;75;43581;-22
2021/06/07 18:59:11;;;;;;;25.55;21.23;;;;;;;19.73;100.00;98784.08;3924062;75;44051;-21
2021/06/07 19:04:19;;;;;;;26.87;21.15;;;;;;;19.62;100.00;98780.63;3913203;74;44031;-22
2021/06/07 19:09:26;;;;;;;28.17;21.50;;;;;;;19.48;100.00;98779.77;3900845;75;43349;-22
2021/06/07 19:14:34;;;;;;;21.90;19.35;;;;;;;19.35;100.00;98782.81;3887531;74;43346;-23
2021/06/07 19:19:41;;;;;;;25.23;21.25;;;;;;;19.36;100.00;98787.77;3887166;75;42974;-23
2021/06/07 19:30:03;;;;;;;25.05;19.80;;;;;;;19.32;100.00;98787.36;4007604;72;27251;-22
2021/06/07 19:35:13;;;;;;;29.23;22.22;;;;;;;19.22;100.00;98797.31;3960134;73;43368;-23
2021/06/07 19:40:19;;;;;;;26.12;22.70;;;;;;;19.11;100.00;98800.66;3968041;73;43700;-23
2021/06/07 19:45:25;;;;;;;26.68;22.30;;;;;;;18.90;100.00;98809.31;3960914;73;44032;-23
2021/06/07 19:50:34;;;;;;;26.48;21.73;;;;;;;18.62;100.00;98816.25;3970171;73;44487;-23
2021/06/07 19:55:56;;;;;;;28.17;22.00;;;;;;;18.45;100.00;98827.50;3962354;73;43436;-23
2021/06/07 20:00:56;;;;;;;26.68;21.90;;;;;;;18.38;100.00;98825.28;3966086;73;44114;-23
2021/06/07 20:06:03;;;;;;;25.65;20.90;;;;;;;18.25;100.00;98830.13;3957831;73;43438;-23
2021/06/07 20:11:12;;;;;;;27.58;21.07;;;;;;;18.21;100.00;98829.37;3961123;73;44062;-23
2021/06/07 20:16:18;;;;;;;25.57;21.20;;;;;;;18.18;100.00;98825.99;3962482;73;43293;-23
2021/06/07 20:21:26;;;;;;;22.37;18.87;;;;;;;18.14;100.00;98829.32;3959016;73;42437;-23
2021/06/07 20:26:32;;;;;;;21.37;18.50;;;;;;;18.15;100.00;98838.69;3965074;73;43410;-24
2021/06/07 20:31:38;;;;;;;21.45;17.32;;;;;;;18.17;100.00;98836.58;3978518;73;43458;-23
2021/06/07 20:36:45;;;;;;;20.72;17.17;;;;;;;18.13;100.00;98844.86;3980421;73;43359;-23
2021/06/07 20:41:52;;;;;;;23.67;19.35;;;;;;;17.99;100.00;98847.99;3980384;73;43620;-23
2021/06/07 20:46:59;;;;;;;24.90;19.87;;;;;;;17.93;100.00;98852.86;3980752;73;44062;-22
2021/06/07 20:52:06;;;;;;;27.87;22.87;;;;;;;17.75;100.00;98849.27;3977813;73;44107;-24
2021/06/07 20:57:13;;;;;;;27.37;22.27;;;;;;;17.67;100.00;98863.87;3976056;73;42986;-23
2021/06/07 21:02:19;;;;;;;30.75;24.77;;;;;;;17.47;100.00;98860.96;3980750;73;43449;-24
2021/06/07 21:07:25;;;;;;;29.30;23.45;;;;;;;17.41;100.00;98874.02;3983851;73;43609;-23
2021/06/07 21:12:31;;;;;;;30.88;23.90;;;;;;;17.21;100.00;98871.94;3976791;73;44038;-22
2021/06/07 21:17:40;;;;;;;32.33;25.08;;;;;;;17.18;100.00;98868.23;3978224;73;43224;-23
2021/06/07 21:22:47;;;;;;;31.00;25.48;;;;;;;17.16;100.00;98870.30;3978597;73;43711;-24
2021/06/07 21:27:56;;;;;;;34.73;26.52;;;;;;;16.96;100.00;98871.97;3986776;73;43714;-24
2021/06/07 21:33:02;;;;;;;33.45;26.50;;;;;;;16.75;100.00;98874.41;3985586;73;43272;-22
2021/06/07 21:38:09;;;;;;;35.03;27.73;;;;;;;16.53;100.00;98869.41;3980514;73;43742;-23
2021/06/07 21:43:15;;;;;;;35.58;27.85;;;;;;;16.43;100.00;98867.50;3994835;73;44477;-23
2021/06/07 21:48:29;;;;;;;39.27;27.87;;;;;;;16.44;100.00;98880.92;3972709;73;43986;-24
2021/06/07 21:53:34;;;;;;;37.03;27.25;;;;;;;16.46;100.00;98884.80;3989354;73;44287;-23
2021/06/07 21:58:40;;;;;;;34.03;26.25;;;;;;;16.36;100.00;98881.53;3973272;73;43701;-23
2021/06/07 22:03:47;;;;;;;30.77;23.87;;;;;;;16.37;100.00;98884.58;3977467;73;43335;-24
2021/06/07 22:08:56;;;;;;;32.35;24.85;;;;;;;16.39;100.00;98883.34;3987983;73;44162;-24
2021/06/07 22:14:03;;;;;;;31.35;25.30;;;;;;;16.38;100.00;98890.34;3992770;73;42687;-24
2021/06/07 22:19:09;;;;;;;32.65;24.98;;;;;;;16.32;100.00;98896.02;3978808;73;43074;-24
2021/06/07 22:24:15;;;;;;;35.35;25.92;;;;;;;16.27;100.00;98893.86;3987237;73;43198;-24
2021/06/07 22:29:21;;;;;;;31.42;22.95;;;;;;;16.28;100.00;98891.48;3968041;73;44057;-23
2021/06/07 22:34:28;;;;;;;27.98;22.30;;;;;;;16.19;100.00;98889.85;3954005;74;44420;-22
2021/06/07 22:39:35;;;;;;;28.57;21.68;;;;;;;16.15;100.00;98889.91;3961261;73;44150;-22
2021/06/07 22:44:41;;;;;;;33.53;23.67;;;;;;;16.14;100.00;98892.30;3952050;74;44451;-23
2021/06/07 22:49:47;;;;;;;29.20;22.98;;;;;;;16.11;100.00;98896.74;3966227;74;43077;-22
2021/06/07 22:54:54;;;;;;;31.35;23.55;;;;;;;16.06;100.00;98901.88;3964002;73;43424;-23
2021/06/07 23:00:00;;;;;;;35.52;25.08;;;;;;;15.98;100.00;98902.83;3876006;74;43102;-23
2021/06/07 23:05:08;;;;;;;35.15;26.20;;;;;;;15.89;100.00;98901.19;3954229;74;44157;-22
2021/06/07 23:10:16;;;;;;;34.30;24.67;;;;;;;15.74;100.00;98907.91;3960212;73;44416;-23
2021/06/07 23:15:23;;;;;;;34.98;23.57;;;;;;;15.70;100.00;98909.63;3956626;74;42853;-23
2021/06/07 23:20:31;;;;;;;32.35;23.57;;;;;;;15.65;100.00;98906.63;3956831;74;43367;-24
2021/06/07 23:25:38;;;;;;;31.73;22.60;;;;;;;15.57;100.00;98909.42;3954487;73;43436;-23
2021/06/07 23:30:44;;;;;;;30.55;21.85;;;;;;;15.51;100.00;98905.56;3942057;73;44039;-22
2021/06/07 23:35:50;;;;;;;36.73;24.70;;;;;;;15.50;100.00;98908.44;3927581;74;42945;-22
2021/06/07 23:40:56;;;;;;;39.70;25.95;;;;;;;15.39;100.00;98913.27;3930810;73;43699;-22
2021/06/07 23:46:03;;;;;;;33.58;24.10;;;;;;;15.27;100.00;98908.45;3934501;74;43438;-23
2021/06/07 23:51:09;;;;;;;33.08;24.15;;;;;;;15.15;100.00;98910.22;3930377;74;43420;-23
2021/06/07 23:56:15;;;;;;;34.50;23.32;;;;;;;15.14;100.00;98912.59;3931847;74;44478;-23
